createdAt,value
2023-04-02T00:02:21.713Z,96098.00
2023-04-02T00:05:31.434Z,96097.00
2023-04-02T00:08:18.125Z,96099.00
2023-04-02T00:10:57.688Z,96100.00
2023-04-02T00:13:40.405Z,96100.00
2023-04-02T00:16:12.794Z,96100.00
2023-04-02T00:18:46.914Z,96112.00
2023-04-02T00:21:24.878Z,96099.00
2023-04-02T00:23:55.587Z,96107.00
2023-04-02T00:26:38.241Z,96098.00
2023-04-02T00:29:06.753Z,96108.00
2023-04-02T00:31:36.137Z,96101.00
2023-04-02T00:34:07.262Z,96109.00
2023-04-02T00:36:35.190Z,96111.00
2023-04-02T00:39:08.666Z,96105.00
2023-04-02T00:41:38.892Z,96116.00
2023-04-02T00:44:06.198Z,96109.00
2023-04-02T00:46:49.688Z,96112.00
2023-04-02T00:49:41.618Z,96109.00
2023-04-02T00:52:16.645Z,96118.00
2023-04-02T00:55:03.552Z,96115.00
2023-04-02T00:57:33.488Z,96116.00
2023-04-02T01:00:18.730Z,96121.00
2023-04-02T01:03:17.730Z,96125.00
2023-04-02T01:06:02.790Z,96120.00
2023-04-02T01:09:10.406Z,96124.00
2023-04-02T01:12:08.039Z,96125.00
2023-04-02T01:14:52.539Z,96128.00
2023-04-02T01:18:00.295Z,96128.00
2023-04-02T01:21:03.497Z,96120.00
2023-04-02T01:24:06.337Z,96134.00
2023-04-02T01:26:58.142Z,96122.00
2023-04-02T01:29:37.201Z,96133.00
2023-04-02T01:32:09.582Z,96131.00
2023-04-02T01:34:37.811Z,96131.00
2023-04-02T01:37:15.138Z,96131.00
2023-04-02T01:39:56.863Z,96143.00
2023-04-02T01:42:46.130Z,96143.00
2023-04-02T01:45:17.490Z,96148.00
2023-04-02T01:47:44.926Z,96148.00
2023-04-02T01:50:23.571Z,96149.00
2023-04-02T01:52:54.585Z,96146.00
2023-04-02T01:55:44.278Z,96150.00
2023-04-02T01:58:15.320Z,96143.00
2023-04-02T02:01:12.347Z,96155.00
2023-04-02T02:03:43.323Z,96154.00
2023-04-02T02:06:16.496Z,96151.00
2023-04-02T02:09:05.532Z,96144.00
2023-04-02T02:11:33.789Z,96149.00
2023-04-02T02:14:34.281Z,96154.00
2023-04-02T02:17:04.201Z,96155.00
2023-04-02T02:19:43.541Z,96151.00
2023-04-02T02:22:31.607Z,96161.00
2023-04-02T02:25:03.555Z,96164.00
2023-04-02T02:27:30.662Z,96168.00
2023-04-02T02:30:19.851Z,96171.00
2023-04-02T02:33:03.334Z,96173.00
2023-04-02T02:35:43.346Z,96171.00
2023-04-02T02:38:31.925Z,96177.00
2023-04-02T02:41:24.557Z,96181.00
2023-04-02T02:44:09.950Z,96181.00
2023-04-02T02:46:54.814Z,96180.00
2023-04-02T02:49:30.519Z,96189.00
2023-04-02T02:52:13.932Z,96189.00
2023-04-02T02:54:46.285Z,96189.00
2023-04-02T02:57:23.612Z,96196.00
2023-04-02T02:59:52.434Z,96194.00
2023-04-02T03:02:19.632Z,96194.00
2023-04-02T03:04:53.175Z,96196.00
2023-04-02T03:07:25.475Z,96196.00
2023-04-02T03:10:29.864Z,96203.00
2023-04-02T03:13:14.386Z,96200.00
2023-04-02T03:15:56.684Z,96200.00
2023-04-02T03:18:41.322Z,96208.00
2023-04-02T03:21:33.007Z,96204.00
2023-04-02T03:24:05.667Z,96209.00
2023-04-02T03:27:13.711Z,96209.00
2023-04-02T03:29:51.855Z,96212.00
2023-04-02T03:32:30.474Z,96213.00
2023-04-02T03:35:03.591Z,96223.00
2023-04-02T03:37:56.293Z,96220.00
2023-04-02T03:40:31.957Z,96237.00
2023-04-02T03:43:12.297Z,96233.00
2023-04-02T03:45:49.814Z,96223.00
2023-04-02T03:48:31.474Z,96231.00
2023-04-02T03:51:22.803Z,96233.00
2023-04-02T03:53:49.871Z,96240.00
2023-04-02T03:56:29.299Z,96244.00
2023-04-02T03:59:15.353Z,96242.00
2023-04-02T04:02:55.188Z,96245.00
2023-04-02T04:05:36.878Z,96247.00
2023-04-02T04:08:42.906Z,96256.00
2023-04-02T04:11:17.716Z,96256.00
2023-04-02T04:13:53.935Z,96252.00
2023-04-02T04:17:09.498Z,96260.00
2023-04-02T04:19:48.502Z,96259.00
2023-04-02T04:22:17.808Z,96258.00
2023-04-02T04:24:48.253Z,96265.00
2023-04-02T04:27:42.694Z,96271.00
2023-04-02T04:30:34.994Z,96281.00
2023-04-02T04:33:15.355Z,96284.00
2023-04-02T04:35:51.589Z,96289.00
2023-04-02T04:38:21.924Z,96295.00
2023-04-02T04:40:55.551Z,96297.00
2023-04-02T04:43:48.218Z,96307.00
2023-04-02T04:46:41.924Z,96310.00
2023-04-02T04:49:19.816Z,96312.00
2023-04-02T04:52:07.769Z,96307.00
2023-04-02T04:54:39.202Z,96305.00
2023-04-02T04:57:32.154Z,96305.00
2023-04-02T05:00:21.912Z,96314.00
2023-04-02T05:03:34.145Z,96317.00
2023-04-02T05:06:32.997Z,96324.00
2023-04-02T05:09:07.947Z,96322.00
2023-04-02T05:11:56.677Z,96326.00
2023-04-02T05:14:40.210Z,96328.00
2023-04-02T05:17:29.633Z,96333.00
2023-04-02T05:20:21.735Z,96338.00
2023-04-02T05:23:03.436Z,96341.00
2023-04-02T05:25:32.896Z,96334.00
2023-04-02T05:28:34.711Z,96335.00
2023-04-02T05:31:14.681Z,96344.00
2023-04-02T05:33:48.045Z,96340.00
2023-04-02T05:36:27.872Z,96350.00
2023-04-02T05:38:57.011Z,96352.00
2023-04-02T05:41:43.894Z,96353.00
2023-04-02T05:44:32.727Z,96356.00
2023-04-02T05:47:14.940Z,96356.00
2023-04-02T05:49:53.528Z,96369.00
2023-04-02T05:52:26.317Z,96370.00
2023-04-02T05:55:05.165Z,96369.00
2023-04-02T05:58:21.291Z,96364.00
2023-04-02T06:01:30.858Z,96377.00
2023-04-02T06:04:19.687Z,96377.00
2023-04-02T06:07:22.672Z,96374.00
2023-04-02T06:10:05.775Z,96389.00
2023-04-02T06:12:44.585Z,96380.00
2023-04-02T06:15:21.871Z,96377.00
2023-04-02T06:17:58.776Z,96387.00
2023-04-02T06:20:26.842Z,96386.00
2023-04-02T06:23:18.127Z,96390.00
2023-04-02T06:26:16.439Z,96392.00
2023-04-02T06:28:53.166Z,96391.00
2023-04-02T06:31:49.517Z,96398.00
2023-04-02T06:34:19.644Z,96407.00
2023-04-02T06:36:47.542Z,96413.00
2023-04-02T06:39:23.993Z,96411.00
2023-04-02T06:42:04.930Z,96409.00
2023-04-02T06:44:37.176Z,96409.00
2023-04-02T06:47:19.160Z,96425.00
2023-04-02T06:50:06.954Z,96429.00
2023-04-02T06:52:40.881Z,96425.00
2023-04-02T06:55:20.613Z,96432.00
2023-04-02T06:57:48.725Z,96437.00
2023-04-02T07:00:45.871Z,96446.00
2023-04-02T07:03:29.200Z,96446.00
2023-04-02T07:05:57.128Z,96444.00
2023-04-02T07:08:24.066Z,96451.00
2023-04-02T07:10:51.264Z,96446.00
2023-04-02T07:13:22.266Z,96456.00
2023-04-02T07:15:52.470Z,96452.00
2023-04-02T07:18:33.395Z,96457.00
2023-04-02T07:21:00.700Z,96463.00
2023-04-02T07:23:27.646Z,96465.00
2023-04-02T07:25:56.091Z,96477.00
2023-04-02T07:28:23.283Z,96471.00
2023-04-02T07:30:51.382Z,96474.00
2023-04-02T07:33:23.100Z,96469.00
2023-04-02T07:35:52.298Z,96476.00
2023-04-02T07:38:19.325Z,96484.00
2023-04-02T07:40:46.668Z,96491.00
2023-04-02T07:43:13.598Z,96495.00
2023-04-02T07:45:40.811Z,96492.00
2023-04-02T07:48:13.532Z,96499.00
2023-04-02T07:50:40.698Z,96501.00
2023-04-02T07:53:08.770Z,96512.00
2023-04-02T07:55:36.295Z,96516.00
2023-04-02T07:58:04.126Z,96515.00
2023-04-02T08:00:31.190Z,96520.00
2023-04-02T08:02:58.072Z,96519.00
2023-04-02T08:05:25.246Z,96534.00
2023-04-02T08:07:56.665Z,96528.00
2023-04-02T08:10:24.274Z,96538.00
2023-04-02T08:12:51.670Z,96544.00
2023-04-02T08:15:18.881Z,96541.00
2023-04-02T08:17:46.730Z,96548.00
2023-04-02T08:20:22.378Z,96546.00
2023-04-02T08:22:50.753Z,96558.00
2023-04-02T08:25:17.826Z,96561.00
2023-04-02T08:27:48.084Z,96565.00
2023-04-02T08:30:17.183Z,96586.00
2023-04-02T08:32:44.495Z,96591.00
2023-04-02T08:35:14.724Z,96593.00
2023-04-02T08:37:43.024Z,96605.00
2023-04-02T08:40:25.735Z,96606.00
2023-04-02T08:43:23.135Z,96613.00
2023-04-02T08:45:56.572Z,96619.00
2023-04-02T08:48:24.311Z,96619.00
2023-04-02T08:50:51.826Z,96626.00
2023-04-02T08:53:25.769Z,96636.00
2023-04-02T08:56:21.082Z,96636.00
2023-04-02T08:58:54.713Z,96642.00
2023-04-02T09:01:37.106Z,96655.00
2023-04-02T09:04:14.494Z,96655.00
2023-04-02T09:06:43.915Z,96662.00
2023-04-02T09:09:14.630Z,96671.00
2023-04-02T09:12:05.434Z,96672.00
2023-04-02T09:14:51.438Z,96673.00
2023-04-02T09:17:22.869Z,96675.00
2023-04-02T09:19:58.043Z,96685.00
2023-04-02T09:22:31.788Z,96683.00
2023-04-02T09:25:04.816Z,96703.00
2023-04-02T09:27:34.132Z,96704.00
2023-04-02T09:30:20.491Z,96713.00
2023-04-02T09:32:54.707Z,96715.00
2023-04-02T09:35:28.643Z,96724.00
2023-04-02T09:38:23.330Z,96726.00
2023-04-02T09:40:54.891Z,96733.00
2023-04-02T09:43:25.516Z,96732.00
2023-04-02T09:46:15.384Z,96742.00
2023-04-02T09:49:01.190Z,96745.00
2023-04-02T09:51:34.719Z,96755.00
2023-04-02T09:54:04.542Z,96762.00
2023-04-02T09:56:36.715Z,96765.00
2023-04-02T09:59:15.444Z,96766.00
2023-04-02T10:01:50.310Z,96766.00
2023-04-02T10:04:35.882Z,96774.00
2023-04-02T10:07:04.021Z,96768.00
2023-04-02T10:09:38.476Z,96780.00
2023-04-02T10:12:12.523Z,96785.00
2023-04-02T10:14:43.919Z,96789.00
2023-04-02T10:17:32.021Z,96801.00
2023-04-02T10:20:17.315Z,96800.00
2023-04-02T10:22:46.242Z,96803.00
2023-04-02T10:25:18.605Z,96793.00
2023-04-02T10:27:59.128Z,96808.00
2023-04-02T10:30:55.606Z,96808.00
2023-04-02T10:33:32.335Z,96818.00
2023-04-02T10:36:11.359Z,96819.00
2023-04-02T10:39:08.581Z,96825.00
2023-04-02T10:42:11.479Z,96832.00
2023-04-02T10:44:53.357Z,96833.00
2023-04-02T10:47:41.083Z,96835.00
2023-04-02T10:50:50.120Z,96844.00
2023-04-02T10:53:26.108Z,96836.00
2023-04-02T10:56:05.626Z,96837.00
2023-04-02T10:58:39.436Z,96853.00
2023-04-02T11:01:20.000Z,96844.00
2023-04-02T11:04:02.479Z,96872.00
2023-04-02T11:06:46.967Z,96866.00
2023-04-02T11:09:21.306Z,96869.00
2023-04-02T11:11:53.823Z,96877.00
2023-04-02T11:14:30.967Z,96879.00
2023-04-02T11:17:01.509Z,96881.00
2023-04-02T11:19:31.864Z,96885.00
2023-04-02T11:22:02.604Z,96891.00
2023-04-02T11:24:34.022Z,96893.00
2023-04-02T11:27:09.858Z,96896.00
2023-04-02T11:30:07.638Z,96905.00
2023-04-02T11:32:42.782Z,96907.00
2023-04-02T11:35:39.104Z,96899.00
2023-04-02T11:38:12.014Z,96917.00
2023-04-02T11:40:47.703Z,96912.00
2023-04-02T11:43:33.006Z,96926.00
2023-04-02T11:46:18.878Z,96929.00
2023-04-02T11:48:45.854Z,96935.00
2023-04-02T11:51:32.606Z,96928.00
2023-04-02T11:53:59.572Z,96940.00
2023-04-02T11:56:48.133Z,96939.00
2023-04-02T12:00:12.803Z,96945.00
2023-04-02T12:03:30.438Z,96940.00
2023-04-02T12:06:42.311Z,96944.00
2023-04-02T12:09:19.965Z,96950.00
2023-04-02T12:11:48.117Z,96947.00
2023-04-02T12:14:47.379Z,96953.00
2023-04-02T12:17:37.459Z,96967.00
2023-04-02T12:20:21.851Z,96953.00
2023-04-02T12:22:53.204Z,96977.00
2023-04-02T12:25:31.646Z,96958.00
2023-04-02T12:28:12.102Z,96968.00
2023-04-02T12:30:39.211Z,96974.00
2023-04-02T12:33:37.520Z,96976.00
2023-04-02T12:36:16.489Z,96982.00
2023-04-02T12:38:52.416Z,96986.00
2023-04-02T12:41:33.284Z,96987.00
2023-04-02T12:44:07.086Z,96983.00
2023-04-02T12:46:35.502Z,97001.00
2023-04-02T12:49:21.869Z,96986.00
2023-04-02T12:51:49.500Z,97014.00
2023-04-02T12:54:18.021Z,97004.00
2023-04-02T12:56:45.364Z,97017.00
2023-04-02T12:59:36.121Z,97020.00
2023-04-02T13:02:18.605Z,97019.00
2023-04-02T13:04:55.966Z,97010.00
2023-04-02T13:07:29.108Z,97016.00
2023-04-02T13:10:00.292Z,97027.00
2023-04-02T13:12:32.534Z,97032.00
2023-04-02T13:15:03.158Z,97036.00
2023-04-02T13:17:45.805Z,97042.00
2023-04-02T13:20:42.992Z,97039.00
2023-04-02T13:23:34.285Z,97051.00
2023-04-02T13:26:08.415Z,97053.00
2023-04-02T13:28:35.393Z,97045.00
2023-04-02T13:31:02.243Z,97035.00
2023-04-02T13:33:29.033Z,97045.00
2023-04-02T13:35:56.011Z,97042.00
2023-04-02T13:38:22.871Z,97052.00
2023-04-02T13:40:49.691Z,97052.00
2023-04-02T13:43:19.910Z,97045.00
2023-04-02T13:45:52.296Z,97048.00
2023-04-02T13:48:19.482Z,97053.00
2023-04-02T13:50:46.776Z,97053.00
2023-04-02T13:53:23.120Z,97069.00
2023-04-02T13:55:50.248Z,97069.00
2023-04-02T13:58:17.138Z,97070.00
2023-04-02T14:00:44.241Z,97080.00
2023-04-02T14:03:24.146Z,97080.00
2023-04-02T14:06:07.999Z,97092.00
2023-04-02T14:09:09.717Z,97103.00
2023-04-02T14:12:33.473Z,97096.00
2023-04-02T14:15:25.605Z,97095.00
2023-04-02T14:18:36.739Z,97091.00
2023-04-02T14:21:17.283Z,97109.00
2023-04-02T14:24:19.348Z,97103.00
2023-04-02T14:27:09.188Z,97104.00
2023-04-02T14:29:54.085Z,97102.00
2023-04-02T14:32:39.445Z,97107.00
2023-04-02T14:35:43.629Z,97105.00
2023-04-02T14:38:43.472Z,97102.00
2023-04-02T14:41:19.408Z,97115.00
2023-04-02T14:43:56.602Z,97112.00
2023-04-02T14:46:29.023Z,97135.00
2023-04-02T14:49:24.414Z,97126.00
2023-04-02T14:52:04.384Z,97129.00
2023-04-02T14:54:39.081Z,97139.00
2023-04-02T14:57:23.162Z,97145.00
2023-04-02T15:00:10.717Z,97148.00
2023-04-02T15:02:51.455Z,97159.00
2023-04-02T15:05:47.833Z,97170.00
2023-04-02T15:08:23.958Z,97160.00
2023-04-02T15:11:17.367Z,97163.00
2023-04-02T15:13:54.555Z,97158.00
2023-04-02T15:16:26.746Z,97177.00
2023-04-02T15:18:57.488Z,97169.00
2023-04-02T15:21:57.722Z,97168.00
2023-04-02T15:25:08.904Z,97174.00
2023-04-02T15:27:47.989Z,97178.00
2023-04-02T15:30:31.120Z,97193.00
2023-04-02T15:33:30.251Z,97197.00
2023-04-02T15:36:37.738Z,97192.00
2023-04-02T15:39:41.125Z,97188.00
2023-04-02T15:42:29.261Z,97197.00
2023-04-02T15:45:08.746Z,97202.00
2023-04-02T15:47:55.500Z,97200.00
2023-04-02T15:50:31.517Z,97204.00
2023-04-02T15:53:08.750Z,97216.00
2023-04-02T15:55:46.489Z,97204.00
2023-04-02T15:58:27.412Z,97220.00
2023-04-02T16:01:32.320Z,97220.00
2023-04-02T16:04:26.712Z,97235.00
2023-04-02T16:07:44.058Z,97246.00
2023-04-02T16:10:41.284Z,97247.00
2023-04-02T16:13:35.925Z,97245.00
2023-04-02T16:16:22.811Z,97260.00
2023-04-02T16:19:20.991Z,97262.00
2023-04-02T16:22:01.816Z,97264.00
2023-04-02T16:24:28.728Z,97275.00
2023-04-02T16:27:01.151Z,97276.00
2023-04-02T16:30:01.288Z,97290.00
2023-04-02T16:33:30.391Z,97294.00
2023-04-02T16:36:21.508Z,97307.00
2023-04-02T16:39:08.122Z,97313.00
2023-04-02T16:41:59.063Z,97310.00
2023-04-02T16:44:40.931Z,97317.00
2023-04-02T16:47:50.592Z,97332.00
2023-04-02T16:50:57.791Z,97322.00
2023-04-02T16:53:30.532Z,97328.00
2023-04-02T16:56:35.435Z,97327.00
2023-04-02T16:59:33.375Z,97345.00
2023-04-02T17:02:32.237Z,97335.00
2023-04-02T17:05:05.767Z,97339.00
2023-04-02T17:08:03.070Z,97336.00
2023-04-02T17:10:33.746Z,97329.00
2023-04-02T17:13:33.649Z,97342.00
2023-04-02T17:16:13.219Z,97340.00
2023-04-02T17:18:43.782Z,97344.00
2023-04-02T17:21:15.423Z,97361.00
2023-04-02T17:23:56.750Z,97356.00
2023-04-02T17:26:31.408Z,97353.00
2023-04-02T17:29:07.050Z,97354.00
2023-04-02T17:31:35.789Z,97358.00
2023-04-02T17:34:15.783Z,97361.00
2023-04-02T17:37:13.160Z,97354.00
2023-04-02T17:40:20.300Z,97362.00
2023-04-02T17:42:56.250Z,97373.00
2023-04-02T17:45:46.297Z,97368.00
2023-04-02T17:48:28.463Z,97378.00
2023-04-02T17:51:19.766Z,97384.00
2023-04-02T17:54:10.601Z,97385.00
2023-04-02T17:57:00.531Z,97386.00
2023-04-02T17:59:54.873Z,97391.00
2023-04-02T18:03:11.259Z,97402.00
2023-04-02T18:06:06.616Z,97399.00
2023-04-02T18:09:00.200Z,97402.00
2023-04-02T18:12:13.346Z,97410.00
2023-04-02T18:15:09.876Z,97412.00
2023-04-02T18:18:03.196Z,97413.00
2023-04-02T18:21:24.210Z,97423.00
2023-04-02T18:24:15.277Z,97433.00
2023-04-02T18:27:21.843Z,97434.00
2023-04-02T18:30:32.733Z,97435.00
2023-04-02T18:33:11.176Z,97444.00
2023-04-02T18:36:11.299Z,97434.00
2023-04-02T18:38:44.247Z,97442.00
2023-04-02T18:41:33.832Z,97445.00
2023-04-02T18:44:04.694Z,97454.00
2023-04-02T18:46:51.261Z,97459.00
2023-04-02T18:49:49.994Z,97472.00
2023-04-02T18:52:18.611Z,97464.00
2023-04-02T18:54:49.957Z,97473.00
2023-04-02T18:57:34.007Z,97472.00
2023-04-02T19:00:26.343Z,97478.00
2023-04-02T19:03:14.373Z,97477.00
2023-04-02T19:06:03.364Z,97484.00
2023-04-02T19:08:47.198Z,97492.00
2023-04-02T19:11:29.989Z,97492.00
2023-04-02T19:14:16.955Z,97502.00
2023-04-02T19:17:03.019Z,97502.00
2023-04-02T19:19:58.095Z,97511.00
2023-04-02T19:23:04.144Z,97513.00
2023-04-02T19:25:54.499Z,97517.00
2023-04-02T19:28:31.148Z,97514.00
2023-04-02T19:31:37.431Z,97520.00
2023-04-02T19:34:20.888Z,97531.00
2023-04-02T19:36:56.033Z,97522.00
2023-04-02T19:40:22.717Z,97524.00
2023-04-02T19:42:52.777Z,97526.00
2023-04-02T19:45:32.436Z,97532.00
2023-04-02T19:48:03.977Z,97525.00
2023-04-02T19:50:31.033Z,97530.00
2023-04-02T19:52:57.899Z,97530.00
2023-04-02T19:55:24.955Z,97532.00
2023-04-02T19:57:54.645Z,97543.00
2023-04-02T20:00:24.700Z,97533.00
2023-04-02T20:02:51.585Z,97533.00
2023-04-02T20:05:18.713Z,97542.00
2023-04-02T20:07:45.811Z,97548.00
2023-04-02T20:10:12.764Z,97555.00
2023-04-02T20:12:39.564Z,97545.00
2023-04-02T20:15:07.769Z,97556.00
2023-04-02T20:17:34.607Z,97546.00
2023-04-02T20:20:01.623Z,97555.00
2023-04-02T20:22:28.814Z,97553.00
2023-04-02T20:24:55.694Z,97563.00
2023-04-02T20:27:22.481Z,97557.00
2023-04-02T20:29:49.370Z,97563.00
2023-04-02T20:32:17.451Z,97555.00
2023-04-02T20:34:44.502Z,97555.00
2023-04-02T20:37:11.368Z,97566.00
2023-04-02T20:39:39.128Z,97578.00
2023-04-02T20:42:06.175Z,97572.00
2023-04-02T20:44:33.047Z,97579.00
2023-04-02T20:46:59.925Z,97570.00
2023-04-02T20:49:26.875Z,97582.00
2023-04-02T20:51:53.849Z,97587.00
2023-04-02T20:54:20.844Z,97597.00
2023-04-02T20:56:47.698Z,97596.00
2023-04-02T20:59:14.600Z,97597.00
2023-04-02T21:01:41.527Z,97618.00
2023-04-02T21:04:08.938Z,97615.00
2023-04-02T21:06:38.930Z,97612.00
2023-04-02T21:09:11.090Z,97615.00
2023-04-02T21:11:37.871Z,97616.00
2023-04-02T21:14:04.737Z,97624.00
2023-04-02T21:16:32.369Z,97619.00
2023-04-02T21:19:06.567Z,97622.00
2023-04-02T21:21:35.015Z,97615.00
2023-04-02T21:24:05.932Z,97616.00
2023-04-02T21:26:38.160Z,97627.00
2023-04-02T21:29:06.026Z,97619.00
2023-04-02T21:31:38.479Z,97624.00
2023-04-02T21:34:07.087Z,97623.00
2023-04-02T21:36:37.560Z,97633.00
2023-04-02T21:39:18.039Z,97625.00
2023-04-02T21:41:49.840Z,97622.00
2023-04-02T21:44:19.720Z,97632.00
2023-04-02T21:46:47.048Z,97617.00
2023-04-02T21:49:17.924Z,97625.00
2023-04-02T21:51:46.843Z,97624.00
2023-04-02T21:54:14.051Z,97627.00
2023-04-02T21:56:44.205Z,97633.00
2023-04-02T21:59:13.751Z,97626.00
2023-04-02T22:01:45.366Z,97628.00
2023-04-02T22:04:18.842Z,97637.00
2023-04-02T22:06:46.382Z,97620.00
2023-04-02T22:09:23.891Z,97626.00
2023-04-02T22:11:55.594Z,97635.00
2023-04-02T22:14:22.878Z,97634.00
2023-04-02T22:16:49.802Z,97628.00
2023-04-02T22:19:17.292Z,97632.00
2023-04-02T22:21:44.665Z,97624.00
2023-04-02T22:24:18.210Z,97636.00
2023-04-02T22:26:46.675Z,97634.00
2023-04-02T22:29:13.774Z,97624.00
2023-04-02T22:31:40.906Z,97621.00
2023-04-02T22:34:07.999Z,97634.00
2023-04-02T22:36:35.761Z,97632.00
2023-04-02T22:39:05.581Z,97637.00
2023-04-02T22:41:33.056Z,97636.00
2023-04-02T22:44:01.679Z,97635.00
2023-04-02T22:46:30.215Z,97653.00
2023-04-02T22:48:57.465Z,97649.00
2023-04-02T22:51:25.579Z,97642.00
2023-04-02T22:53:54.967Z,97647.00
2023-04-02T22:56:29.607Z,97651.00
2023-04-02T22:58:56.472Z,97647.00
2023-04-02T23:01:31.682Z,97655.00
2023-04-02T23:03:58.908Z,97663.00
2023-04-02T23:06:27.192Z,97661.00
2023-04-02T23:08:54.104Z,97655.00
2023-04-02T23:11:24.601Z,97664.00
2023-04-02T23:13:53.377Z,97660.00
2023-04-02T23:16:22.523Z,97659.00
2023-04-02T23:18:49.979Z,97659.00
2023-04-02T23:21:19.382Z,97671.00
2023-04-02T23:23:47.622Z,97666.00
2023-04-02T23:26:29.426Z,97668.00
2023-04-02T23:28:58.970Z,97663.00
2023-04-02T23:31:26.404Z,97662.00
2023-04-02T23:33:53.688Z,97663.00
2023-04-02T23:36:28.540Z,97656.00
2023-04-02T23:39:02.660Z,97661.00
2023-04-02T23:41:31.318Z,97655.00
2023-04-02T23:43:59.132Z,97653.00
2023-04-02T23:46:26.241Z,97658.00
2023-04-02T23:48:54.073Z,97660.00
2023-04-02T23:51:21.365Z,97642.00
2023-04-02T23:53:49.799Z,97657.00
2023-04-02T23:56:17.388Z,97651.00
2023-04-02T23:58:44.625Z,97658.00
